sensor_id;sensor_type;location;lat;lon;timestamp;P1;durP1;ratioP1;P2;durP2;ratioP2
59147;SDS011;44930;52.878;6.168;2023-02-28T00:00:15;8.80;;;3.30;;
59147;SDS011;44930;52.878;6.168;2023-02-28T00:02:41;6.93;;;3.38;;
59147;SDS011;44930;52.878;6.168;2023-02-28T00:05:08;4.68;;;2.92;;
59147;SDS011;44930;52.878;6.168;2023-02-28T00:07:35;6.90;;;2.97;;
59147;SDS011;44930;52.878;6.168;2023-02-28T00:10:01;12.05;;;3.47;;
59147;SDS011;44930;52.878;6.168;2023-02-28T00:12:28;8.20;;;3.63;;
59147;SDS011;44930;52.878;6.168;2023-02-28T00:14:54;10.60;;;3.38;;
59147;SDS011;44930;52.878;6.168;2023-02-28T00:17:20;7.50;;;3.30;;
59147;SDS011;44930;52.878;6.168;2023-02-28T00:19:50;15.00;;;4.45;;
59147;SDS011;44930;52.878;6.168;2023-02-28T00:22:16;9.75;;;3.70;;
59147;SDS011;44930;52.878;6.168;2023-02-28T00:24:43;8.63;;;2.88;;
59147;SDS011;44930;52.878;6.168;2023-02-28T00:27:09;7.13;;;2.88;;
59147;SDS011;44930;52.878;6.168;2023-02-28T00:29:35;7.85;;;3.47;;
59147;SDS011;44930;52.878;6.168;2023-02-28T00:32:01;9.43;;;3.90;;
59147;SDS011;44930;52.878;6.168;2023-02-28T00:34:27;8.07;;;3.38;;
59147;SDS011;44930;52.878;6.168;2023-02-28T00:36:52;13.00;;;3.90;;
59147;SDS011;44930;52.878;6.168;2023-02-28T00:39:18;11.52;;;4.93;;
59147;SDS011;44930;52.878;6.168;2023-02-28T00:41:44;6.63;;;3.50;;
59147;SDS011;44930;52.878;6.168;2023-02-28T00:44:09;10.88;;;3.42;;
59147;SDS011;44930;52.878;6.168;2023-02-28T00:46:35;10.95;;;2.95;;
59147;SDS011;44930;52.878;6.168;2023-02-28T00:49:01;5.82;;;2.95;;
59147;SDS011;44930;52.878;6.168;2023-02-28T00:51:26;10.32;;;3.75;;
59147;SDS011;44930;52.878;6.168;2023-02-28T00:53:52;9.15;;;3.13;;
59147;SDS011;44930;52.878;6.168;2023-02-28T00:56:17;7.70;;;3.20;;
59147;SDS011;44930;52.878;6.168;2023-02-28T00:58:43;15.20;;;3.65;;
59147;SDS011;44930;52.878;6.168;2023-02-28T01:01:09;10.18;;;4.13;;
59147;SDS011;44930;52.878;6.168;2023-02-28T01:03:34;6.13;;;3.10;;
59147;SDS011;44930;52.878;6.168;2023-02-28T01:06:00;10.50;;;3.85;;
59147;SDS011;44930;52.878;6.168;2023-02-28T01:08:26;11.65;;;4.13;;
59147;SDS011;44930;52.878;6.168;2023-02-28T01:10:52;7.40;;;3.13;;
59147;SDS011;44930;52.878;6.168;2023-02-28T01:13:18;5.97;;;3.20;;
59147;SDS011;44930;52.878;6.168;2023-02-28T01:15:51;6.10;;;3.10;;
59147;SDS011;44930;52.878;6.168;2023-02-28T01:18:19;10.33;;;4.07;;
59147;SDS011;44930;52.878;6.168;2023-02-28T01:20:46;8.70;;;3.35;;
59147;SDS011;44930;52.878;6.168;2023-02-28T01:23:11;9.15;;;4.00;;
59147;SDS011;44930;52.878;6.168;2023-02-28T01:25:37;7.05;;;3.00;;
59147;SDS011;44930;52.878;6.168;2023-02-28T01:28:03;7.50;;;3.10;;
59147;SDS011;44930;52.878;6.168;2023-02-28T01:30:29;7.18;;;3.03;;
59147;SDS011;44930;52.878;6.168;2023-02-28T01:32:55;12.32;;;4.40;;
59147;SDS011;44930;52.878;6.168;2023-02-28T01:35:20;8.07;;;3.70;;
59147;SDS011;44930;52.878;6.168;2023-02-28T01:37:46;6.57;;;3.78;;
59147;SDS011;44930;52.878;6.168;2023-02-28T01:40:12;7.85;;;3.33;;
59147;SDS011;44930;52.878;6.168;2023-02-28T01:42:38;7.03;;;3.47;;
59147;SDS011;44930;52.878;6.168;2023-02-28T01:47:48;8.95;;;4.22;;
59147;SDS011;44930;52.878;6.168;2023-02-28T01:50:18;8.77;;;3.58;;
59147;SDS011;44930;52.878;6.168;2023-02-28T01:52:46;9.43;;;4.45;;
59147;SDS011;44930;52.878;6.168;2023-02-28T01:55:13;8.57;;;3.65;;
59147;SDS011;44930;52.878;6.168;2023-02-28T01:57:43;8.73;;;4.57;;
59147;SDS011;44930;52.878;6.168;2023-02-28T02:00:16;12.88;;;4.35;;
59147;SDS011;44930;52.878;6.168;2023-02-28T02:02:45;8.75;;;4.28;;
59147;SDS011;44930;52.878;6.168;2023-02-28T02:05:17;12.75;;;4.35;;
59147;SDS011;44930;52.878;6.168;2023-02-28T02:07:48;9.98;;;4.38;;
59147;SDS011;44930;52.878;6.168;2023-02-28T02:10:19;9.68;;;4.50;;
59147;SDS011;44930;52.878;6.168;2023-02-28T02:13:05;10.45;;;3.90;;
59147;SDS011;44930;52.878;6.168;2023-02-28T02:23:57;14.52;;;6.47;;
59147;SDS011;44930;52.878;6.168;2023-02-28T02:32:20;7.03;;;3.72;;
59147;SDS011;44930;52.878;6.168;2023-02-28T02:40:25;7.05;;;3.90;;
59147;SDS011;44930;52.878;6.168;2023-02-28T02:43:08;8.95;;;4.30;;
59147;SDS011;44930;52.878;6.168;2023-02-28T02:45:48;13.00;;;4.45;;
59147;SDS011;44930;52.878;6.168;2023-02-28T02:48:25;10.93;;;4.47;;
59147;SDS011;44930;52.878;6.168;2023-02-28T02:50:56;9.55;;;4.07;;
59147;SDS011;44930;52.878;6.168;2023-02-28T02:53:29;7.80;;;4.47;;
59147;SDS011;44930;52.878;6.168;2023-02-28T02:55:59;8.20;;;3.85;;
59147;SDS011;44930;52.878;6.168;2023-02-28T02:58:31;9.63;;;4.13;;
59147;SDS011;44930;52.878;6.168;2023-02-28T03:01:06;13.90;;;4.38;;
59147;SDS011;44930;52.878;6.168;2023-02-28T03:03:35;13.05;;;4.55;;
59147;SDS011;44930;52.878;6.168;2023-02-28T03:06:01;9.05;;;4.07;;
59147;SDS011;44930;52.878;6.168;2023-02-28T03:08:29;9.73;;;4.53;;
59147;SDS011;44930;52.878;6.168;2023-02-28T03:10:59;7.45;;;4.55;;
59147;SDS011;44930;52.878;6.168;2023-02-28T03:21:53;10.15;;;4.53;;
59147;SDS011;44930;52.878;6.168;2023-02-28T03:28:27;10.95;;;4.03;;
59147;SDS011;44930;52.878;6.168;2023-02-28T03:30:21;13.18;;;4.47;;
59147;SDS011;44930;52.878;6.168;2023-02-28T03:35:31;6.20;;;3.58;;
59147;SDS011;44930;52.878;6.168;2023-02-28T03:38:03;7.72;;;4.07;;
59147;SDS011;44930;52.878;6.168;2023-02-28T03:40:39;7.50;;;3.55;;
59147;SDS011;44930;52.878;6.168;2023-02-28T03:43:10;8.20;;;3.53;;
59147;SDS011;44930;52.878;6.168;2023-02-28T03:45:39;6.63;;;4.18;;
59147;SDS011;44930;52.878;6.168;2023-02-28T03:50:57;8.05;;;3.47;;
59147;SDS011;44930;52.878;6.168;2023-02-28T03:53:27;10.25;;;3.80;;
59147;SDS011;44930;52.878;6.168;2023-02-28T03:56:11;9.55;;;4.00;;
59147;SDS011;44930;52.878;6.168;2023-02-28T04:01:13;6.22;;;3.95;;
59147;SDS011;44930;52.878;6.168;2023-02-28T04:03:41;7.13;;;4.10;;
59147;SDS011;44930;52.878;6.168;2023-02-28T04:06:07;6.13;;;3.90;;
59147;SDS011;44930;52.878;6.168;2023-02-28T04:08:38;8.00;;;4.13;;
59147;SDS011;44930;52.878;6.168;2023-02-28T04:11:05;6.65;;;3.60;;
59147;SDS011;44930;52.878;6.168;2023-02-28T04:13:32;6.28;;;3.92;;
59147;SDS011;44930;52.878;6.168;2023-02-28T04:15:58;9.30;;;4.70;;
59147;SDS011;44930;52.878;6.168;2023-02-28T04:18:24;8.02;;;4.28;;
59147;SDS011;44930;52.878;6.168;2023-02-28T04:20:49;9.43;;;4.70;;
59147;SDS011;44930;52.878;6.168;2023-02-28T04:23:15;10.77;;;7.38;;
59147;SDS011;44930;52.878;6.168;2023-02-28T04:25:40;13.60;;;8.48;;
59147;SDS011;44930;52.878;6.168;2023-02-28T04:28:06;11.75;;;8.80;;
59147;SDS011;44930;52.878;6.168;2023-02-28T04:30:32;13.75;;;10.00;;
59147;SDS011;44930;52.878;6.168;2023-02-28T04:32:57;13.65;;;9.73;;
59147;SDS011;44930;52.878;6.168;2023-02-28T04:35:23;16.42;;;8.80;;
59147;SDS011;44930;52.878;6.168;2023-02-28T04:37:49;16.38;;;8.68;;
59147;SDS011;44930;52.878;6.168;2023-02-28T04:40:14;16.20;;;9.05;;
59147;SDS011;44930;52.878;6.168;2023-02-28T04:42:40;13.80;;;8.40;;
59147;SDS011;44930;52.878;6.168;2023-02-28T04:45:06;16.42;;;9.45;;
59147;SDS011;44930;52.878;6.168;2023-02-28T04:47:35;16.15;;;8.75;;
59147;SDS011;44930;52.878;6.168;2023-02-28T04:50:01;16.65;;;8.80;;
59147;SDS011;44930;52.878;6.168;2023-02-28T04:52:27;17.40;;;9.60;;
59147;SDS011;44930;52.878;6.168;2023-02-28T04:54:52;15.93;;;9.30;;
59147;SDS011;44930;52.878;6.168;2023-02-28T04:57:18;13.35;;;9.35;;
59147;SDS011;44930;52.878;6.168;2023-02-28T04:59:44;16.45;;;9.60;;
59147;SDS011;44930;52.878;6.168;2023-02-28T05:02:09;15.70;;;9.30;;
59147;SDS011;44930;52.878;6.168;2023-02-28T05:04:35;17.83;;;10.63;;
59147;SDS011;44930;52.878;6.168;2023-02-28T05:07:01;18.17;;;10.45;;
59147;SDS011;44930;52.878;6.168;2023-02-28T05:09:28;19.60;;;10.32;;
59147;SDS011;44930;52.878;6.168;2023-02-28T05:11:54;15.85;;;10.18;;
59147;SDS011;44930;52.878;6.168;2023-02-28T05:14:20;13.85;;;9.13;;
59147;SDS011;44930;52.878;6.168;2023-02-28T05:16:46;15.00;;;9.70;;
59147;SDS011;44930;52.878;6.168;2023-02-28T05:19:11;14.75;;;9.57;;
59147;SDS011;44930;52.878;6.168;2023-02-28T05:21:41;15.73;;;9.50;;
59147;SDS011;44930;52.878;6.168;2023-02-28T05:24:14;17.55;;;10.40;;
59147;SDS011;44930;52.878;6.168;2023-02-28T05:26:41;15.80;;;10.13;;
59147;SDS011;44930;52.878;6.168;2023-02-28T05:29:07;18.70;;;10.43;;
59147;SDS011;44930;52.878;6.168;2023-02-28T05:31:34;18.75;;;11.25;;
59147;SDS011;44930;52.878;6.168;2023-02-28T05:34:00;17.80;;;10.40;;
59147;SDS011;44930;52.878;6.168;2023-02-28T05:36:26;17.23;;;10.48;;
59147;SDS011;44930;52.878;6.168;2023-02-28T05:38:52;18.60;;;10.57;;
59147;SDS011;44930;52.878;6.168;2023-02-28T05:41:18;18.85;;;10.13;;
59147;SDS011;44930;52.878;6.168;2023-02-28T05:43:45;15.45;;;9.70;;
59147;SDS011;44930;52.878;6.168;2023-02-28T05:46:11;19.77;;;12.05;;
59147;SDS011;44930;52.878;6.168;2023-02-28T05:48:38;14.68;;;10.25;;
59147;SDS011;44930;52.878;6.168;2023-02-28T05:51:05;16.67;;;10.68;;
59147;SDS011;44930;52.878;6.168;2023-02-28T05:53:32;21.80;;;11.60;;
59147;SDS011;44930;52.878;6.168;2023-02-28T05:55:58;21.85;;;11.68;;
59147;SDS011;44930;52.878;6.168;2023-02-28T05:58:24;18.80;;;11.38;;
59147;SDS011;44930;52.878;6.168;2023-02-28T06:00:55;18.30;;;10.65;;
59147;SDS011;44930;52.878;6.168;2023-02-28T06:03:22;17.63;;;10.93;;
59147;SDS011;44930;52.878;6.168;2023-02-28T06:05:48;15.95;;;10.70;;
59147;SDS011;44930;52.878;6.168;2023-02-28T06:08:15;17.08;;;10.60;;
59147;SDS011;44930;52.878;6.168;2023-02-28T06:10:41;16.30;;;11.25;;
59147;SDS011;44930;52.878;6.168;2023-02-28T06:13:06;16.25;;;10.90;;
59147;SDS011;44930;52.878;6.168;2023-02-28T06:15:32;16.40;;;10.85;;
59147;SDS011;44930;52.878;6.168;2023-02-28T06:17:58;18.88;;;12.25;;
59147;SDS011;44930;52.878;6.168;2023-02-28T06:20:24;17.15;;;11.70;;
59147;SDS011;44930;52.878;6.168;2023-02-28T06:22:51;17.30;;;10.63;;
59147;SDS011;44930;52.878;6.168;2023-02-28T06:25:19;16.13;;;10.20;;
59147;SDS011;44930;52.878;6.168;2023-02-28T06:27:44;18.77;;;11.05;;
59147;SDS011;44930;52.878;6.168;2023-02-28T06:30:11;16.85;;;10.85;;
59147;SDS011;44930;52.878;6.168;2023-02-28T06:32:37;19.30;;;11.60;;
59147;SDS011;44930;52.878;6.168;2023-02-28T06:35:03;17.35;;;10.63;;
59147;SDS011;44930;52.878;6.168;2023-02-28T06:37:30;17.75;;;10.70;;
59147;SDS011;44930;52.878;6.168;2023-02-28T06:39:56;22.38;;;11.85;;
59147;SDS011;44930;52.878;6.168;2023-02-28T06:42:23;15.55;;;10.57;;
59147;SDS011;44930;52.878;6.168;2023-02-28T06:44:54;20.23;;;10.98;;
59147;SDS011;44930;52.878;6.168;2023-02-28T06:47:23;22.90;;;11.82;;
59147;SDS011;44930;52.878;6.168;2023-02-28T06:49:48;16.02;;;11.15;;
59147;SDS011;44930;52.878;6.168;2023-02-28T06:52:14;19.90;;;11.32;;
59147;SDS011;44930;52.878;6.168;2023-02-28T06:54:40;17.02;;;10.75;;
59147;SDS011;44930;52.878;6.168;2023-02-28T06:57:06;16.45;;;11.55;;
59147;SDS011;44930;52.878;6.168;2023-02-28T06:59:31;16.75;;;11.43;;
59147;SDS011;44930;52.878;6.168;2023-02-28T07:01:57;17.30;;;11.55;;
59147;SDS011;44930;52.878;6.168;2023-02-28T07:04:23;19.88;;;12.02;;
59147;SDS011;44930;52.878;6.168;2023-02-28T07:06:48;18.52;;;12.18;;
59147;SDS011;44930;52.878;6.168;2023-02-28T07:09:14;16.50;;;11.98;;
59147;SDS011;44930;52.878;6.168;2023-02-28T07:11:40;18.08;;;12.80;;
59147;SDS011;44930;52.878;6.168;2023-02-28T07:14:07;18.58;;;12.18;;
59147;SDS011;44930;52.878;6.168;2023-02-28T07:16:33;18.15;;;11.35;;
59147;SDS011;44930;52.878;6.168;2023-02-28T07:19:00;22.92;;;12.25;;
59147;SDS011;44930;52.878;6.168;2023-02-28T07:21:25;17.67;;;11.32;;
59147;SDS011;44930;52.878;6.168;2023-02-28T07:23:51;20.15;;;11.98;;
59147;SDS011;44930;52.878;6.168;2023-02-28T07:26:17;18.38;;;12.73;;
59147;SDS011;44930;52.878;6.168;2023-02-28T07:28:44;19.13;;;12.82;;
59147;SDS011;44930;52.878;6.168;2023-02-28T07:31:11;18.95;;;12.85;;
59147;SDS011;44930;52.878;6.168;2023-02-28T07:33:42;20.48;;;12.60;;
59147;SDS011;44930;52.878;6.168;2023-02-28T07:36:12;20.20;;;12.73;;
59147;SDS011;44930;52.878;6.168;2023-02-28T07:38:44;20.67;;;12.95;;
59147;SDS011;44930;52.878;6.168;2023-02-28T07:41:13;18.80;;;12.35;;
59147;SDS011;44930;52.878;6.168;2023-02-28T07:43:42;19.95;;;13.55;;
59147;SDS011;44930;52.878;6.168;2023-02-28T07:46:10;19.30;;;13.35;;
59147;SDS011;44930;52.878;6.168;2023-02-28T07:48:37;19.73;;;12.35;;
59147;SDS011;44930;52.878;6.168;2023-02-28T07:51:03;22.08;;;12.35;;
59147;SDS011;44930;52.878;6.168;2023-02-28T07:53:29;19.67;;;12.73;;
59147;SDS011;44930;52.878;6.168;2023-02-28T07:55:58;21.42;;;13.30;;
59147;SDS011;44930;52.878;6.168;2023-02-28T07:58:25;16.13;;;10.70;;
59147;SDS011;44930;52.878;6.168;2023-02-28T08:00:52;17.13;;;11.73;;
59147;SDS011;44930;52.878;6.168;2023-02-28T08:03:18;17.95;;;11.82;;
59147;SDS011;44930;52.878;6.168;2023-02-28T08:05:45;17.73;;;12.02;;
59147;SDS011;44930;52.878;6.168;2023-02-28T08:08:12;15.15;;;10.57;;
59147;SDS011;44930;52.878;6.168;2023-02-28T08:10:39;17.13;;;11.25;;
59147;SDS011;44930;52.878;6.168;2023-02-28T08:13:04;16.55;;;12.23;;
59147;SDS011;44930;52.878;6.168;2023-02-28T08:15:30;16.20;;;11.05;;
59147;SDS011;44930;52.878;6.168;2023-02-28T08:17:56;16.00;;;11.10;;
59147;SDS011;44930;52.878;6.168;2023-02-28T08:20:25;15.52;;;11.55;;
59147;SDS011;44930;52.878;6.168;2023-02-28T08:22:51;18.63;;;11.48;;
59147;SDS011;44930;52.878;6.168;2023-02-28T08:25:17;18.15;;;11.90;;
59147;SDS011;44930;52.878;6.168;2023-02-28T08:27:42;16.25;;;11.30;;
59147;SDS011;44930;52.878;6.168;2023-02-28T08:30:12;17.50;;;11.75;;
59147;SDS011;44930;52.878;6.168;2023-02-28T08:32:38;17.17;;;11.52;;
59147;SDS011;44930;52.878;6.168;2023-02-28T08:35:05;18.23;;;10.95;;
59147;SDS011;44930;52.878;6.168;2023-02-28T08:37:32;20.35;;;11.70;;
59147;SDS011;44930;52.878;6.168;2023-02-28T08:39:57;19.70;;;11.80;;
59147;SDS011;44930;52.878;6.168;2023-02-28T08:42:23;15.40;;;10.90;;
59147;SDS011;44930;52.878;6.168;2023-02-28T08:44:49;18.38;;;11.55;;
59147;SDS011;44930;52.878;6.168;2023-02-28T08:47:15;16.55;;;10.80;;
59147;SDS011;44930;52.878;6.168;2023-02-28T08:49:41;14.40;;;10.60;;
59147;SDS011;44930;52.878;6.168;2023-02-28T08:52:06;13.43;;;10.18;;
59147;SDS011;44930;52.878;6.168;2023-02-28T08:54:32;16.38;;;10.30;;
59147;SDS011;44930;52.878;6.168;2023-02-28T08:56:59;17.63;;;10.82;;
59147;SDS011;44930;52.878;6.168;2023-02-28T08:59:24;16.77;;;10.57;;
59147;SDS011;44930;52.878;6.168;2023-02-28T09:01:50;18.30;;;10.88;;
59147;SDS011;44930;52.878;6.168;2023-02-28T09:04:15;16.98;;;10.57;;
59147;SDS011;44930;52.878;6.168;2023-02-28T09:06:41;17.08;;;11.13;;
59147;SDS011;44930;52.878;6.168;2023-02-28T09:09:07;13.65;;;10.38;;
59147;SDS011;44930;52.878;6.168;2023-02-28T09:11:34;14.02;;;9.77;;
59147;SDS011;44930;52.878;6.168;2023-02-28T09:14:00;15.30;;;10.30;;
59147;SDS011;44930;52.878;6.168;2023-02-28T09:16:28;15.93;;;10.75;;
59147;SDS011;44930;52.878;6.168;2023-02-28T09:18:54;14.15;;;10.13;;
59147;SDS011;44930;52.878;6.168;2023-02-28T09:21:20;15.48;;;10.55;;
59147;SDS011;44930;52.878;6.168;2023-02-28T09:23:46;15.70;;;10.32;;
59147;SDS011;44930;52.878;6.168;2023-02-28T09:26:14;15.70;;;9.25;;
59147;SDS011;44930;52.878;6.168;2023-02-28T09:28:41;15.63;;;9.68;;
59147;SDS011;44930;52.878;6.168;2023-02-28T09:31:10;16.90;;;10.80;;
59147;SDS011;44930;52.878;6.168;2023-02-28T09:33:38;12.65;;;9.65;;
59147;SDS011;44930;52.878;6.168;2023-02-28T09:36:04;13.98;;;8.68;;
59147;SDS011;44930;52.878;6.168;2023-02-28T09:38:30;11.48;;;8.93;;
59147;SDS011;44930;52.878;6.168;2023-02-28T09:40:57;14.98;;;8.82;;
59147;SDS011;44930;52.878;6.168;2023-02-28T09:43:25;14.55;;;8.95;;
59147;SDS011;44930;52.878;6.168;2023-02-28T09:45:55;15.10;;;9.27;;
59147;SDS011;44930;52.878;6.168;2023-02-28T09:48:39;16.55;;;8.88;;
59147;SDS011;44930;52.878;6.168;2023-02-28T09:51:16;11.75;;;7.82;;
59147;SDS011;44930;52.878;6.168;2023-02-28T09:53:55;13.88;;;7.32;;
59147;SDS011;44930;52.878;6.168;2023-02-28T09:56:24;10.05;;;6.68;;
59147;SDS011;44930;52.878;6.168;2023-02-28T10:04:04;9.50;;;5.03;;
59147;SDS011;44930;52.878;6.168;2023-02-28T10:06:45;8.38;;;5.30;;
59147;SDS011;44930;52.878;6.168;2023-02-28T10:09:24;8.32;;;4.95;;
59147;SDS011;44930;52.878;6.168;2023-02-28T10:11:59;7.18;;;4.28;;
59147;SDS011;44930;52.878;6.168;2023-02-28T10:14:30;7.50;;;4.18;;
59147;SDS011;44930;52.878;6.168;2023-02-28T10:17:02;8.55;;;3.42;;
59147;SDS011;44930;52.878;6.168;2023-02-28T10:19:46;5.20;;;3.58;;
59147;SDS011;44930;52.878;6.168;2023-02-28T10:24:47;5.15;;;3.13;;
59147;SDS011;44930;52.878;6.168;2023-02-28T10:27:17;6.60;;;4.18;;
59147;SDS011;44930;52.878;6.168;2023-02-28T10:29:46;5.50;;;3.88;;
59147;SDS011;44930;52.878;6.168;2023-02-28T10:32:15;6.13;;;3.70;;
59147;SDS011;44930;52.878;6.168;2023-02-28T10:34:42;13.32;;;3.90;;
59147;SDS011;44930;52.878;6.168;2023-02-28T10:37:08;7.20;;;3.85;;
59147;SDS011;44930;52.878;6.168;2023-02-28T10:39:37;7.53;;;3.78;;
59147;SDS011;44930;52.878;6.168;2023-02-28T10:42:03;4.85;;;2.92;;
59147;SDS011;44930;52.878;6.168;2023-02-28T10:44:29;7.75;;;3.70;;
59147;SDS011;44930;52.878;6.168;2023-02-28T10:46:54;7.10;;;4.15;;
59147;SDS011;44930;52.878;6.168;2023-02-28T10:49:25;8.00;;;4.00;;
59147;SDS011;44930;52.878;6.168;2023-02-28T10:51:56;6.43;;;3.72;;
59147;SDS011;44930;52.878;6.168;2023-02-28T10:57:11;5.32;;;2.83;;
59147;SDS011;44930;52.878;6.168;2023-02-28T10:59:40;4.90;;;3.22;;
59147;SDS011;44930;52.878;6.168;2023-02-28T11:02:52;6.00;;;3.50;;
59147;SDS011;44930;52.878;6.168;2023-02-28T11:04:59;4.60;;;2.88;;
59147;SDS011;44930;52.878;6.168;2023-02-28T11:07:26;6.72;;;3.40;;
59147;SDS011;44930;52.878;6.168;2023-02-28T11:09:53;7.05;;;3.58;;
59147;SDS011;44930;52.878;6.168;2023-02-28T11:12:37;4.65;;;3.40;;
59147;SDS011;44930;52.878;6.168;2023-02-28T11:15:26;5.57;;;3.55;;
59147;SDS011;44930;52.878;6.168;2023-02-28T11:18:14;5.10;;;4.00;;
59147;SDS011;44930;52.878;6.168;2023-02-28T11:20:52;5.05;;;3.53;;
59147;SDS011;44930;52.878;6.168;2023-02-28T11:23:20;4.68;;;2.13;;
59147;SDS011;44930;52.878;6.168;2023-02-28T11:25:51;3.83;;;2.65;;
59147;SDS011;44930;52.878;6.168;2023-02-28T11:36:21;6.13;;;3.60;;
59147;SDS011;44930;52.878;6.168;2023-02-28T11:38:52;7.63;;;3.60;;
59147;SDS011;44930;52.878;6.168;2023-02-28T11:46:44;4.97;;;3.63;;
59147;SDS011;44930;52.878;6.168;2023-02-28T11:49:20;6.57;;;3.70;;
59147;SDS011;44930;52.878;6.168;2023-02-28T11:57:40;8.05;;;4.20;;
59147;SDS011;44930;52.878;6.168;2023-02-28T12:08:44;6.85;;;3.72;;
59147;SDS011;44930;52.878;6.168;2023-02-28T12:14:03;6.50;;;3.83;;
59147;SDS011;44930;52.878;6.168;2023-02-28T12:25:58;6.70;;;4.18;;
59147;SDS011;44930;52.878;6.168;2023-02-28T12:28:28;6.05;;;3.58;;
59147;SDS011;44930;52.878;6.168;2023-02-28T12:31:33;5.53;;;3.28;;
59147;SDS011;44930;52.878;6.168;2023-02-28T12:34:13;5.93;;;3.60;;
59147;SDS011;44930;52.878;6.168;2023-02-28T12:36:43;4.65;;;3.40;;
59147;SDS011;44930;52.878;6.168;2023-02-28T12:39:12;5.40;;;3.78;;
59147;SDS011;44930;52.878;6.168;2023-02-28T12:41:47;5.78;;;4.43;;
59147;SDS011;44930;52.878;6.168;2023-02-28T12:44:20;7.43;;;4.43;;
59147;SDS011;44930;52.878;6.168;2023-02-28T12:47:05;5.85;;;3.75;;
59147;SDS011;44930;52.878;6.168;2023-02-28T12:49:58;7.65;;;3.78;;
59147;SDS011;44930;52.878;6.168;2023-02-28T12:52:31;8.50;;;4.47;;
59147;SDS011;44930;52.878;6.168;2023-02-28T12:55:19;7.85;;;3.70;;
59147;SDS011;44930;52.878;6.168;2023-02-28T12:57:55;6.78;;;4.20;;
59147;SDS011;44930;52.878;6.168;2023-02-28T13:00:25;9.38;;;4.53;;
59147;SDS011;44930;52.878;6.168;2023-02-28T13:03:16;7.15;;;4.07;;
59147;SDS011;44930;52.878;6.168;2023-02-28T13:09:10;5.80;;;3.67;;
59147;SDS011;44930;52.878;6.168;2023-02-28T13:11:43;5.20;;;3.60;;
59147;SDS011;44930;52.878;6.168;2023-02-28T13:14:24;6.28;;;4.13;;
59147;SDS011;44930;52.878;6.168;2023-02-28T13:19:24;7.22;;;4.50;;
59147;SDS011;44930;52.878;6.168;2023-02-28T13:21:52;7.18;;;4.00;;
59147;SDS011;44930;52.878;6.168;2023-02-28T13:29:35;6.57;;;4.55;;
59147;SDS011;44930;52.878;6.168;2023-02-28T13:34:30;5.97;;;4.47;;
59147;SDS011;44930;52.878;6.168;2023-02-28T13:39:57;10.68;;;3.47;;
59147;SDS011;44930;52.878;6.168;2023-02-28T13:45:21;4.72;;;3.03;;
59147;SDS011;44930;52.878;6.168;2023-02-28T13:47:51;6.20;;;2.97;;
59147;SDS011;44930;52.878;6.168;2023-02-28T13:50:27;6.40;;;3.28;;
59147;SDS011;44930;52.878;6.168;2023-02-28T14:06:47;5.97;;;3.35;;
59147;SDS011;44930;52.878;6.168;2023-02-28T14:09:17;4.47;;;2.75;;
59147;SDS011;44930;52.878;6.168;2023-02-28T14:11:51;8.43;;;3.20;;
59147;SDS011;44930;52.878;6.168;2023-02-28T14:17:02;5.47;;;3.33;;
59147;SDS011;44930;52.878;6.168;2023-02-28T14:19:30;7.20;;;3.83;;
59147;SDS011;44930;52.878;6.168;2023-02-28T14:28:19;5.75;;;3.38;;
59147;SDS011;44930;52.878;6.168;2023-02-28T14:31:06;7.40;;;4.05;;
59147;SDS011;44930;52.878;6.168;2023-02-28T14:36:36;7.20;;;3.58;;
59147;SDS011;44930;52.878;6.168;2023-02-28T14:39:13;4.97;;;3.40;;
59147;SDS011;44930;52.878;6.168;2023-02-28T14:41:41;5.35;;;3.10;;
59147;SDS011;44930;52.878;6.168;2023-02-28T14:49:13;5.55;;;3.03;;
59147;SDS011;44930;52.878;6.168;2023-02-28T14:51:44;5.57;;;3.15;;
59147;SDS011;44930;52.878;6.168;2023-02-28T14:54:13;7.43;;;4.00;;
59147;SDS011;44930;52.878;6.168;2023-02-28T14:56:40;4.97;;;3.47;;
59147;SDS011;44930;52.878;6.168;2023-02-28T14:59:21;4.97;;;3.08;;
59147;SDS011;44930;52.878;6.168;2023-02-28T15:04:43;6.55;;;3.35;;
59147;SDS011;44930;52.878;6.168;2023-02-28T15:07:16;5.57;;;3.08;;
59147;SDS011;44930;52.878;6.168;2023-02-28T15:09:42;5.35;;;3.10;;
59147;SDS011;44930;52.878;6.168;2023-02-28T15:12:07;7.47;;;3.72;;
59147;SDS011;44930;52.878;6.168;2023-02-28T15:14:42;4.90;;;3.42;;
59147;SDS011;44930;52.878;6.168;2023-02-28T15:17:11;4.93;;;3.15;;
59147;SDS011;44930;52.878;6.168;2023-02-28T15:19:46;6.50;;;3.25;;
59147;SDS011;44930;52.878;6.168;2023-02-28T15:22:17;5.75;;;3.22;;
59147;SDS011;44930;52.878;6.168;2023-02-28T15:24:50;5.53;;;3.67;;
59147;SDS011;44930;52.878;6.168;2023-02-28T15:27:25;5.05;;;3.55;;
59147;SDS011;44930;52.878;6.168;2023-02-28T15:29:54;6.80;;;3.95;;
59147;SDS011;44930;52.878;6.168;2023-02-28T15:32:26;5.50;;;3.88;;
59147;SDS011;44930;52.878;6.168;2023-02-28T15:34:54;5.15;;;3.65;;
59147;SDS011;44930;52.878;6.168;2023-02-28T15:37:33;6.00;;;3.65;;
59147;SDS011;44930;52.878;6.168;2023-02-28T15:45:32;5.13;;;3.63;;
59147;SDS011;44930;52.878;6.168;2023-02-28T15:48:25;5.93;;;3.55;;
59147;SDS011;44930;52.878;6.168;2023-02-28T15:50:53;6.80;;;3.92;;
59147;SDS011;44930;52.878;6.168;2023-02-28T15:53:25;8.43;;;4.03;;
59147;SDS011;44930;52.878;6.168;2023-02-28T15:55:55;5.47;;;3.45;;
59147;SDS011;44930;52.878;6.168;2023-02-28T15:58:27;6.88;;;4.03;;
59147;SDS011;44930;52.878;6.168;2023-02-28T16:01:01;4.90;;;3.47;;
59147;SDS011;44930;52.878;6.168;2023-02-28T16:03:39;6.47;;;4.07;;
59147;SDS011;44930;52.878;6.168;2023-02-28T16:06:23;5.43;;;3.58;;
59147;SDS011;44930;52.878;6.168;2023-02-28T16:08:50;5.93;;;3.33;;
59147;SDS011;44930;52.878;6.168;2023-02-28T16:11:16;11.95;;;6.00;;
59147;SDS011;44930;52.878;6.168;2023-02-28T16:13:43;5.45;;;3.97;;
59147;SDS011;44930;52.878;6.168;2023-02-28T16:16:08;6.70;;;3.45;;
59147;SDS011;44930;52.878;6.168;2023-02-28T16:18:47;5.13;;;3.55;;
59147;SDS011;44930;52.878;6.168;2023-02-28T16:21:13;6.82;;;3.80;;
59147;SDS011;44930;52.878;6.168;2023-02-28T16:23:39;5.07;;;3.80;;
59147;SDS011;44930;52.878;6.168;2023-02-28T16:26:04;5.43;;;3.42;;
59147;SDS011;44930;52.878;6.168;2023-02-28T16:28:32;5.10;;;3.15;;
59147;SDS011;44930;52.878;6.168;2023-02-28T16:31:00;4.95;;;3.13;;
59147;SDS011;44930;52.878;6.168;2023-02-28T16:33:29;6.03;;;3.90;;
59147;SDS011;44930;52.878;6.168;2023-02-28T16:35:55;4.75;;;3.60;;
59147;SDS011;44930;52.878;6.168;2023-02-28T16:38:20;5.30;;;3.92;;
59147;SDS011;44930;52.878;6.168;2023-02-28T16:40:48;9.50;;;4.32;;
59147;SDS011;44930;52.878;6.168;2023-02-28T16:43:15;7.00;;;4.28;;
59147;SDS011;44930;52.878;6.168;2023-02-28T16:45:44;7.53;;;4.70;;
59147;SDS011;44930;52.878;6.168;2023-02-28T16:48:11;6.88;;;4.32;;
59147;SDS011;44930;52.878;6.168;2023-02-28T16:50:38;9.10;;;5.00;;
59147;SDS011;44930;52.878;6.168;2023-02-28T16:53:03;9.70;;;4.82;;
59147;SDS011;44930;52.878;6.168;2023-02-28T16:55:29;7.25;;;4.70;;
59147;SDS011;44930;52.878;6.168;2023-02-28T16:57:56;6.72;;;4.05;;
59147;SDS011;44930;52.878;6.168;2023-02-28T17:00:23;6.13;;;3.92;;
59147;SDS011;44930;52.878;6.168;2023-02-28T17:02:51;8.85;;;3.88;;
59147;SDS011;44930;52.878;6.168;2023-02-28T17:05:16;6.90;;;4.28;;
59147;SDS011;44930;52.878;6.168;2023-02-28T17:07:43;10.65;;;3.95;;
59147;SDS011;44930;52.878;6.168;2023-02-28T17:10:13;5.75;;;4.20;;
59147;SDS011;44930;52.878;6.168;2023-02-28T17:12:42;6.78;;;4.05;;
59147;SDS011;44930;52.878;6.168;2023-02-28T17:15:12;7.95;;;4.80;;
59147;SDS011;44930;52.878;6.168;2023-02-28T17:17:40;5.95;;;4.15;;
59147;SDS011;44930;52.878;6.168;2023-02-28T17:20:09;6.47;;;4.47;;